Time;durP1;ratioP1;P1;durP2;ratioP2;P2;SDS_P1;SDS_P2;PMS_P1;PMS_P2;Temp;Humidity;BMP_temperature;BMP_pressure;BME280_temperature;BME280_humidity;BME280_pressure;Samples;Min_cycle;Max_cycle;Signal;HPM_P1;HPM_P2
2024/03/26 00:02:08;;;;;;;5.87;5.13;;;4.40;99.90;;;;;;5031669;28;20207;-64
2024/03/26 00:04:34;;;;;;;11.13;5.77;;;4.30;99.90;;;;;;5031071;28;20802;-64
2024/03/26 00:07:00;;;;;;;5.70;4.90;;;4.30;99.90;;;;;;5031326;28;20195;-64
2024/03/26 00:09:26;;;;;;;4.97;4.30;;;4.20;99.90;;;;;;5031602;28;20418;-63
2024/03/26 00:11:51;;;;;;;10.30;5.33;;;4.20;99.90;;;;;;5031357;28;20292;-64
2024/03/26 00:14:17;;;;;;;9.57;5.63;;;4.20;99.90;;;;;;5031188;28;20207;-62
2024/03/26 00:16:42;;;;;;;5.00;4.10;;;4.10;99.90;;;;;;5030888;28;20300;-66
2024/03/26 00:19:08;;;;;;;6.47;4.40;;;4.10;99.90;;;;;;5029845;28;20202;-63
2024/03/26 00:21:34;;;;;;;8.67;5.40;;;4.10;99.90;;;;;;5030813;28;20184;-64
2024/03/26 00:23:59;;;;;;;6.03;5.17;;;4.10;99.90;;;;;;5031342;28;20207;-64
2024/03/26 00:26:25;;;;;;;7.80;5.63;;;4.10;99.90;;;;;;5031797;28;20500;-65
2024/03/26 00:28:51;;;;;;;9.53;4.90;;;4.00;99.90;;;;;;5031223;28;20176;-64
2024/03/26 00:31:16;;;;;;;6.67;5.20;;;4.00;99.90;;;;;;5031516;28;20203;-65
2024/03/26 00:33:42;;;;;;;6.83;4.07;;;4.00;99.90;;;;;;5029547;28;20461;-65
2024/03/26 00:36:08;;;;;;;6.40;4.77;;;4.00;99.90;;;;;;5031495;28;20203;-64
2024/03/26 00:38:34;;;;;;;6.13;4.50;;;4.00;99.90;;;;;;5029305;28;20237;-62
2024/03/26 00:41:00;;;;;;;6.23;4.73;;;4.00;99.90;;;;;;5030158;28;20905;-64
2024/03/26 00:43:26;;;;;;;8.67;5.67;;;4.00;99.90;;;;;;5031059;28;20665;-64
2024/03/26 00:45:52;;;;;;;7.00;4.97;;;4.00;99.90;;;;;;5030476;28;20442;-64
2024/03/26 00:48:17;;;;;;;8.20;5.20;;;4.00;99.90;;;;;;5031564;28;20606;-63
2024/03/26 00:50:43;;;;;;;6.37;5.53;;;4.00;99.90;;;;;;5030568;28;20251;-64
2024/03/26 00:53:09;;;;;;;4.50;4.13;;;4.00;99.90;;;;;;5030994;28;20180;-66
2024/03/26 00:55:35;;;;;;;5.90;5.10;;;4.10;99.90;;;;;;5029318;28;20734;-63
2024/03/26 00:58:00;;;;;;;8.40;4.80;;;4.00;99.90;;;;;;5031304;28;20449;-64
2024/03/26 01:00:26;;;;;;;6.60;5.40;;;4.00;99.90;;;;;;5031730;28;20687;-65
2024/03/26 01:02:51;;;;;;;11.30;5.40;;;4.00;99.90;;;;;;5031325;28;20245;-64
2024/03/26 01:05:17;;;;;;;6.00;4.93;;;4.00;99.90;;;;;;5031273;28;20264;-64
2024/03/26 01:07:42;;;;;;;8.90;4.83;;;4.00;99.90;;;;;;5031099;28;20977;-64
2024/03/26 01:10:08;;;;;;;10.57;4.93;;;4.00;99.90;;;;;;5031205;28;20179;-64
2024/03/26 01:12:34;;;;;;;9.63;5.17;;;4.00;99.90;;;;;;5029102;28;20192;-64
2024/03/26 01:14:59;;;;;;;10.47;4.97;;;4.00;99.90;;;;;;5030866;28;20453;-63
2024/03/26 01:17:25;;;;;;;6.73;4.40;;;4.00;99.90;;;;;;5031492;28;20511;-64
2024/03/26 01:19:51;;;;;;;7.60;4.03;;;4.00;99.90;;;;;;5030451;28;20824;-64
2024/03/26 01:22:16;;;;;;;8.90;5.27;;;4.00;99.90;;;;;;5029175;28;20200;-63
2024/03/26 01:24:42;;;;;;;7.00;5.67;;;4.00;99.90;;;;;;5029337;28;20628;-62
2024/03/26 01:27:07;;;;;;;8.17;5.07;;;4.00;99.90;;;;;;5029938;28;20193;-63
2024/03/26 01:29:33;;;;;;;5.63;4.33;;;4.00;99.90;;;;;;5030375;28;20171;-61
2024/03/26 01:31:58;;;;;;;5.07;4.40;;;4.00;99.90;;;;;;5029897;28;20187;-62
2024/03/26 01:34:24;;;;;;;5.80;5.13;;;4.00;99.90;;;;;;5029998;28;20286;-60
2024/03/26 01:36:49;;;;;;;4.53;3.77;;;3.90;99.90;;;;;;5029996;28;20221;-64
2024/03/26 01:39:15;;;;;;;5.63;4.80;;;3.90;99.90;;;;;;5023747;28;20614;-64
2024/03/26 01:41:41;;;;;;;5.17;4.67;;;3.80;99.90;;;;;;5028669;28;20254;-63
2024/03/26 01:44:07;;;;;;;8.20;4.83;;;3.80;99.90;;;;;;5029686;28;20241;-63
2024/03/26 01:46:36;;;;;;;6.70;4.47;;;3.80;99.90;;;;;;5030141;28;20787;-63
2024/03/26 01:49:06;;;;;;;6.10;4.53;;;3.80;99.90;;;;;;5029460;28;20472;-64
2024/03/26 01:51:33;;;;;;;5.60;4.80;;;3.80;99.90;;;;;;5030058;28;20410;-62
2024/03/26 01:54:01;;;;;;;8.43;4.70;;;3.80;99.90;;;;;;5029219;28;20422;-62
2024/03/26 01:56:27;;;;;;;7.20;4.50;;;3.80;99.90;;;;;;5029746;28;20418;-62
2024/03/26 01:58:54;;;;;;;5.73;5.13;;;3.80;99.90;;;;;;5027715;28;20442;-63
2024/03/26 02:01:21;;;;;;;7.73;4.83;;;3.80;99.90;;;;;;5029537;28;20431;-63
2024/03/26 02:03:46;;;;;;;6.87;4.57;;;3.80;99.90;;;;;;5028607;28;20476;-65
2024/03/26 02:06:12;;;;;;;7.80;4.93;;;3.80;99.90;;;;;;5029583;28;20791;-63
2024/03/26 02:08:39;;;;;;;6.63;4.67;;;3.70;99.90;;;;;;5029379;28;20187;-63
2024/03/26 02:11:05;;;;;;;6.90;5.17;;;3.70;99.90;;;;;;5027768;28;20259;-63
2024/03/26 02:13:30;;;;;;;7.03;5.13;;;3.70;99.90;;;;;;5027888;28;20892;-62
2024/03/26 02:15:56;;;;;;;6.33;4.67;;;3.60;99.90;;;;;;5028750;28;20208;-64
2024/03/26 02:18:21;;;;;;;5.97;4.63;;;3.60;99.90;;;;;;5029036;28;20184;-63
2024/03/26 02:20:47;;;;;;;8.00;4.23;;;3.60;99.90;;;;;;5029027;28;20175;-62
2024/03/26 02:23:13;;;;;;;5.60;4.20;;;3.60;99.90;;;;;;5029347;28;20214;-62
2024/03/26 02:25:38;;;;;;;10.03;5.27;;;3.50;99.90;;;;;;5029590;28;20207;-62
2024/03/26 02:28:04;;;;;;;7.13;5.10;;;3.50;99.90;;;;;;5029147;28;20422;-61
2024/03/26 02:30:30;;;;;;;12.70;4.40;;;3.40;99.90;;;;;;5028150;28;20184;-63
2024/03/26 02:32:55;;;;;;;6.53;4.83;;;3.50;99.90;;;;;;5029019;28;20449;-64
2024/03/26 02:35:21;;;;;;;8.33;5.17;;;3.40;99.90;;;;;;5029274;28;20203;-64
2024/03/26 02:37:48;;;;;;;5.80;5.00;;;3.40;99.90;;;;;;5027736;28;20495;-63
2024/03/26 02:40:14;;;;;;;5.20;4.60;;;3.40;99.90;;;;;;5026255;28;20237;-64
2024/03/26 02:42:39;;;;;;;4.30;3.90;;;3.40;99.90;;;;;;5028180;28;20466;-64
2024/03/26 02:45:05;;;;;;;7.73;5.23;;;3.40;99.90;;;;;;5028970;28;20206;-62
2024/03/26 02:47:31;;;;;;;4.50;4.10;;;3.30;99.90;;;;;;5012330;28;20176;-64
2024/03/26 02:49:57;;;;;;;5.87;4.67;;;3.30;99.90;;;;;;5028991;28;20509;-63
2024/03/26 02:52:22;;;;;;;5.23;4.17;;;3.30;99.90;;;;;;5029296;28;20254;-63
2024/03/26 02:54:48;;;;;;;5.60;4.47;;;3.30;99.90;;;;;;5028705;28;20278;-64
2024/03/26 02:57:13;;;;;;;7.00;4.00;;;3.30;99.90;;;;;;5026920;28;20920;-64
2024/03/26 02:59:39;;;;;;;10.50;4.60;;;3.30;99.90;;;;;;5015037;28;20198;-65
2024/03/26 03:02:05;;;;;;;5.60;4.43;;;3.20;99.90;;;;;;5028833;28;20206;-63
2024/03/26 03:04:31;;;;;;;4.07;3.67;;;3.20;99.90;;;;;;5027866;28;20207;-61
2024/03/26 03:06:56;;;;;;;5.50;4.47;;;3.20;99.90;;;;;;5028897;28;20524;-63
2024/03/26 03:09:22;;;;;;;4.90;4.40;;;3.20;99.90;;;;;;5029196;28;20202;-63
2024/03/26 03:11:47;;;;;;;5.47;4.50;;;3.20;99.90;;;;;;5029343;28;20177;-63
2024/03/26 03:14:13;;;;;;;5.43;3.90;;;3.10;99.90;;;;;;5027701;28;20228;-62
2024/03/26 03:16:38;;;;;;;10.00;5.40;;;3.10;99.90;;;;;;5032820;28;20241;-63
2024/03/26 03:19:04;;;;;;;8.47;4.67;;;3.10;99.90;;;;;;5032092;28;20179;-63
2024/03/26 03:21:30;;;;;;;5.20;4.47;;;3.10;99.90;;;;;;5032584;28;20207;-64
2024/03/26 03:23:55;;;;;;;10.87;4.73;;;3.10;99.90;;;;;;5031739;28;20649;-63
2024/03/26 03:26:21;;;;;;;7.17;4.53;;;3.10;99.90;;;;;;5032950;28;20191;-63
2024/03/26 03:28:46;;;;;;;6.00;4.80;;;3.00;99.90;;;;;;5032731;28;20195;-63
2024/03/26 03:31:12;;;;;;;5.37;4.53;;;3.00;99.90;;;;;;5030885;28;20557;-64
2024/03/26 03:33:37;;;;;;;6.30;5.20;;;3.00;99.90;;;;;;5032318;28;20188;-63
2024/03/26 03:36:03;;;;;;;9.43;4.90;;;3.00;99.90;;;;;;5031993;28;20262;-63
2024/03/26 03:38:29;;;;;;;6.63;4.70;;;2.90;99.90;;;;;;5031054;28;20191;-63
2024/03/26 03:40:54;;;;;;;9.83;5.37;;;2.90;99.90;;;;;;5030464;28;20425;-64
2024/03/26 03:43:20;;;;;;;6.60;4.43;;;2.80;99.90;;;;;;5029430;28;20207;-64
2024/03/26 03:45:45;;;;;;;7.70;5.20;;;2.80;99.90;;;;;;5031285;28;20271;-64
2024/03/26 03:48:11;;;;;;;6.83;4.73;;;2.80;99.90;;;;;;5031759;28;20279;-63
2024/03/26 03:50:36;;;;;;;7.60;4.73;;;2.80;99.90;;;;;;5018639;28;20233;-63
2024/03/26 03:53:02;;;;;;;5.40;4.90;;;2.80;99.90;;;;;;5031061;28;20257;-65
2024/03/26 03:55:30;;;;;;;5.33;4.77;;;2.70;99.90;;;;;;5031719;28;20207;-63
2024/03/26 03:57:55;;;;;;;7.07;5.00;;;2.70;99.90;;;;;;5031832;28;20534;-63
2024/03/26 04:00:21;;;;;;;7.87;4.47;;;2.70;99.90;;;;;;5030464;28;20430;-63
2024/03/26 04:02:46;;;;;;;7.13;4.10;;;2.70;99.90;;;;;;5031510;28;20685;-65
2024/03/26 04:05:12;;;;;;;4.70;3.30;;;2.60;99.90;;;;;;5030769;28;20576;-63
2024/03/26 04:07:37;;;;;;;7.17;4.97;;;2.60;99.90;;;;;;5017911;28;20274;-63
2024/03/26 04:10:04;;;;;;;6.40;5.37;;;2.60;99.90;;;;;;5030467;28;20198;-63
2024/03/26 04:12:29;;;;;;;8.43;4.60;;;2.60;99.90;;;;;;5030659;28;20187;-64
2024/03/26 04:14:55;;;;;;;5.23;4.33;;;2.60;99.90;;;;;;5030236;28;20512;-63
2024/03/26 04:17:21;;;;;;;4.50;4.10;;;2.50;99.90;;;;;;5028751;28;20195;-62
2024/03/26 04:19:46;;;;;;;4.70;3.87;;;2.50;99.90;;;;;;5030328;28;20196;-62
2024/03/26 04:22:12;;;;;;;10.10;4.97;;;2.50;99.90;;;;;;5030307;28;20219;-60
2024/03/26 04:24:37;;;;;;;10.90;4.20;;;2.50;99.90;;;;;;5030497;28;20601;-62
2024/03/26 04:27:03;;;;;;;5.67;4.47;;;2.50;99.90;;;;;;5030206;28;20484;-64
2024/03/26 04:29:29;;;;;;;5.53;4.43;;;2.50;99.90;;;;;;5030399;28;20267;-63
2024/03/26 04:31:54;;;;;;;4.63;4.10;;;2.50;99.90;;;;;;5030420;28;20595;-62
2024/03/26 04:34:20;;;;;;;5.67;4.00;;;2.50;99.90;;;;;;5028643;28;20578;-62
2024/03/26 04:36:46;;;;;;;5.17;4.10;;;2.50;99.90;;;;;;5030029;28;20199;-63
2024/03/26 04:39:12;;;;;;;9.20;5.00;;;2.50;99.90;;;;;;5029777;28;20237;-66
2024/03/26 04:41:37;;;;;;;6.33;4.07;;;2.60;99.90;;;;;;5030038;28;20203;-62
2024/03/26 04:44:03;;;;;;;5.37;4.53;;;2.60;99.90;;;;;;5027260;28;20939;-63
2024/03/26 04:46:30;;;;;;;4.90;4.37;;;2.60;99.90;;;;;;5029727;28;20190;-63
2024/03/26 04:48:55;;;;;;;10.50;4.23;;;2.60;99.90;;;;;;5029815;28;20180;-62
2024/03/26 04:51:21;;;;;;;5.43;3.70;;;2.70;99.90;;;;;;5029984;28;20565;-62
2024/03/26 04:53:47;;;;;;;5.03;3.80;;;2.70;99.90;;;;;;5029497;28;20931;-63
2024/03/26 04:56:13;;;;;;;8.20;4.03;;;2.70;99.90;;;;;;5026736;28;20184;-62
2024/03/26 04:58:40;;;;;;;8.93;4.67;;;2.70;99.90;;;;;;5029983;28;20423;-62
2024/03/26 05:01:05;;;;;;;5.10;4.07;;;2.80;99.90;;;;;;5027868;28;20454;-63
2024/03/26 05:03:31;;;;;;;5.27;4.27;;;2.70;99.90;;;;;;5029445;28;20979;-65
2024/03/26 05:05:57;;;;;;;8.80;4.00;;;2.70;99.90;;;;;;4988583;28;1126589;-63
2024/03/26 05:08:22;;;;;;;5.30;4.40;;;2.80;99.90;;;;;;5030349;28;20207;-63
2024/03/26 05:10:48;;;;;;;8.97;3.93;;;2.80;99.90;;;;;;5030421;28;20187;-66
2024/03/26 05:13:14;;;;;;;8.10;5.30;;;2.80;99.90;;;;;;5030871;28;20666;-65
2024/03/26 05:15:40;;;;;;;7.00;4.90;;;2.80;99.90;;;;;;5030908;28;20550;-63
2024/03/26 05:18:06;;;;;;;9.83;4.80;;;2.90;99.90;;;;;;5028866;28;20452;-62
2024/03/26 05:20:32;;;;;;;3.90;3.60;;;2.90;99.90;;;;;;5029734;28;20587;-64
2024/03/26 05:22:57;;;;;;;5.27;4.10;;;2.90;99.90;;;;;;5029856;28;20470;-62
2024/03/26 05:25:23;;;;;;;5.07;4.43;;;3.00;99.90;;;;;;5030216;28;20306;-62
2024/03/26 05:27:48;;;;;;;5.30;4.43;;;3.10;99.90;;;;;;5030416;28;20554;-62
2024/03/26 05:30:14;;;;;;;7.67;4.80;;;3.10;99.90;;;;;;5026969;28;20214;-62
2024/03/26 05:32:40;;;;;;;5.77;3.90;;;3.20;99.90;;;;;;5030252;28;20184;-62
2024/03/26 05:35:05;;;;;;;7.27;4.90;;;3.20;99.90;;;;;;5027956;28;20523;-63
2024/03/26 05:37:32;;;;;;;7.07;4.80;;;3.30;99.90;;;;;;5029730;28;20180;-64
2024/03/26 05:39:58;;;;;;;6.20;4.10;;;3.30;99.90;;;;;;5030222;28;20453;-60
2024/03/26 05:42:24;;;;;;;5.37;3.57;;;3.30;99.90;;;;;;5030417;28;20207;-63
2024/03/26 05:44:49;;;;;;;7.80;4.33;;;3.40;99.90;;;;;;5027201;28;20285;-63
2024/03/26 05:47:15;;;;;;;7.83;5.13;;;3.50;99.90;;;;;;5008819;28;20523;-62
2024/03/26 05:49:41;;;;;;;5.47;4.50;;;3.50;99.90;;;;;;5029862;28;20267;-62
2024/03/26 05:52:07;;;;;;;6.47;4.03;;;3.60;99.90;;;;;;5030438;28;20198;-61
2024/03/26 05:54:33;;;;;;;5.60;3.80;;;3.80;99.90;;;;;;5016210;28;20230;-63
2024/03/26 05:56:58;;;;;;;7.60;4.83;;;4.10;99.90;;;;;;5014956;28;20804;-62
2024/03/26 05:59:24;;;;;;;6.03;3.93;;;4.30;99.90;;;;;;5029617;28;20222;-62
2024/03/26 06:01:50;;;;;;;5.90;3.90;;;4.40;99.90;;;;;;5012121;28;20214;-64
2024/03/26 06:04:15;;;;;;;5.37;4.20;;;4.60;99.90;;;;;;4995482;28;20695;-64
2024/03/26 06:06:41;;;;;;;4.43;4.03;;;4.70;99.90;;;;;;5029495;28;20226;-63
2024/03/26 06:09:07;;;;;;;6.63;3.90;;;5.00;99.90;;;;;;5029082;28;20637;-66
2024/03/26 06:11:32;;;;;;;5.40;4.03;;;5.10;99.90;;;;;;5029469;28;20194;-65
2024/03/26 06:13:58;;;;;;;4.47;3.87;;;5.30;99.90;;;;;;5028817;28;20618;-64
2024/03/26 06:16:24;;;;;;;3.47;3.17;;;5.50;99.90;;;;;;5029479;28;20263;-64
2024/03/26 06:18:49;;;;;;;5.40;3.63;;;5.90;99.90;;;;;;5027420;28;20216;-64
2024/03/26 06:21:15;;;;;;;4.70;3.30;;;6.10;99.90;;;;;;5028656;28;20190;-65
2024/03/26 06:23:41;;;;;;;5.10;3.60;;;6.50;99.90;;;;;;5025314;28;20263;-65
2024/03/26 06:26:06;;;;;;;5.00;3.47;;;6.50;99.90;;;;;;5028545;28;20264;-64
2024/03/26 06:28:32;;;;;;;5.73;3.37;;;6.80;99.90;;;;;;5029380;28;20799;-64
2024/03/26 06:30:58;;;;;;;3.67;3.37;;;6.80;99.90;;;;;;5029064;28;20188;-63
2024/03/26 06:33:23;;;;;;;4.50;3.40;;;6.80;99.90;;;;;;5028990;28;20311;-65
2024/03/26 06:35:49;;;;;;;5.57;3.60;;;7.20;99.90;;;;;;5027306;28;20245;-65
2024/03/26 06:38:14;;;;;;;4.20;3.83;;;7.50;99.90;;;;;;5028817;28;20298;-64
2024/03/26 06:40:40;;;;;;;4.40;3.17;;;7.60;99.90;;;;;;5029487;28;20606;-64
2024/03/26 06:43:07;;;;;;;4.73;3.60;;;7.60;99.90;;;;;;5029198;28;20217;-63
2024/03/26 06:45:33;;;;;;;6.20;3.87;;;7.70;99.90;;;;;;5028085;28;20556;-64
2024/03/26 06:47:59;;;;;;;4.20;3.80;;;7.30;99.90;;;;;;5015313;28;20422;-63
2024/03/26 06:50:25;;;;;;;4.67;4.00;;;7.80;99.90;;;;;;5029205;28;20555;-64
2024/03/26 06:52:51;;;;;;;4.10;3.70;;;8.10;99.90;;;;;;5029853;28;20420;-63
2024/03/26 06:55:17;;;;;;;5.07;3.80;;;8.30;99.90;;;;;;5028301;28;20211;-63
2024/03/26 06:57:43;;;;;;;7.20;4.10;;;8.50;99.90;;;;;;5029137;28;20191;-64
2024/03/26 07:00:11;;;;;;;5.23;4.73;;;8.60;99.90;;;;;;5028900;28;20422;-65
2024/03/26 07:02:37;;;;;;;5.23;4.73;;;8.70;99.90;;;;;;5026299;28;20477;-64
2024/03/26 07:05:05;;;;;;;7.50;4.57;;;8.80;99.90;;;;;;5028075;28;20538;-64
2024/03/26 07:07:31;;;;;;;5.53;3.70;;;8.70;99.90;;;;;;5028683;28;20441;-63
2024/03/26 07:09:57;;;;;;;5.73;4.83;;;8.80;99.90;;;;;;5028748;28;20422;-63
2024/03/26 07:12:23;;;;;;;4.07;3.50;;;8.80;99.90;;;;;;5028327;28;20869;-66
2024/03/26 07:14:49;;;;;;;6.20;4.00;;;8.70;99.90;;;;;;5027854;28;20522;-64
2024/03/26 07:17:14;;;;;;;4.50;4.10;;;9.10;99.90;;;;;;5028509;28;20254;-63
2024/03/26 07:19:40;;;;;;;5.70;4.40;;;9.40;99.90;;;;;;5028827;28;20290;-63
2024/03/26 07:22:06;;;;;;;5.73;4.47;;;9.20;99.90;;;;;;5026485;28;20239;-64
2024/03/26 07:24:31;;;;;;;7.53;4.40;;;9.20;99.90;;;;;;5028307;28;20207;-64
2024/03/26 07:26:57;;;;;;;5.73;4.30;;;8.90;99.90;;;;;;5028392;28;20188;-63
2024/03/26 07:29:23;;;;;;;6.00;4.30;;;8.90;99.90;;;;;;5028638;28;20190;-64
2024/03/26 07:31:48;;;;;;;9.40;4.57;;;8.80;99.90;;;;;;5028315;28;20206;-64
2024/03/26 07:34:15;;;;;;;5.80;4.50;;;9.70;99.90;;;;;;5010863;28;20481;-64
2024/03/26 07:36:41;;;;;;;5.10;4.30;;;9.90;99.90;;;;;;5029022;28;20263;-64
2024/03/26 07:39:09;;;;;;;4.90;4.50;;;9.90;99.90;;;;;;5009788;28;20465;-63
2024/03/26 07:41:35;;;;;;;5.33;4.07;;;9.80;99.90;;;;;;5028619;28;20936;-64
2024/03/26 07:44:01;;;;;;;4.20;3.47;;;10.20;99.90;;;;;;5028836;28;20414;-64
2024/03/26 07:46:27;;;;;;;5.77;4.20;;;10.10;99.90;;;;;;5026635;28;20834;-64
2024/03/26 07:48:52;;;;;;;7.40;3.97;;;10.20;99.90;;;;;;5028867;28;20496;-63
2024/03/26 07:51:18;;;;;;;4.40;3.93;;;10.50;99.90;;;;;;5028623;28;20183;-62
2024/03/26 07:53:43;;;;;;;4.80;4.10;;;10.10;99.90;;;;;;5028633;28;20227;-62
2024/03/26 07:56:09;;;;;;;4.73;3.77;;;10.20;99.90;;;;;;5027921;28;20205;-62
2024/03/26 07:58:35;;;;;;;10.00;3.90;;;9.80;99.90;;;;;;5028418;28;20203;-63
2024/03/26 08:01:00;;;;;;;4.40;2.77;;;9.40;99.90;;;;;;5030164;28;20279;-63
2024/03/26 08:03:26;;;;;;;4.73;4.33;;;10.10;99.90;;;;;;5032142;28;20462;-63
2024/03/26 08:05:52;;;;;;;5.20;4.03;;;10.40;99.90;;;;;;5030577;28;20226;-63
2024/03/26 08:08:17;;;;;;;3.30;2.80;;;10.50;99.90;;;;;;5029027;28;20465;-63
2024/03/26 08:10:43;;;;;;;5.53;2.80;;;10.70;99.90;;;;;;5031762;28;20187;-63
2024/03/26 08:13:11;;;;;;;4.80;2.53;;;10.40;99.90;;;;;;5031602;28;20202;-63
2024/03/26 08:15:37;;;;;;;3.70;3.10;;;10.30;99.90;;;;;;5031507;28;20211;-62
2024/03/26 08:18:03;;;;;;;5.43;3.17;;;10.50;99.90;;;;;;5029102;28;20525;-63
2024/03/26 08:20:30;;;;;;;3.10;2.17;;;10.20;99.80;;;;;;5031553;28;20179;-62
2024/03/26 08:22:57;;;;;;;3.07;2.77;;;10.20;99.90;;;;;;5031374;28;20462;-62
2024/03/26 08:25:22;;;;;;;3.57;2.90;;;10.70;99.90;;;;;;5031498;28;20968;-64
2024/03/26 08:27:48;;;;;;;3.07;2.33;;;11.10;98.80;;;;;;5031435;28;20501;-62
2024/03/26 08:30:13;;;;;;;2.93;2.30;;;11.20;96.80;;;;;;5030893;28;20626;-63
2024/03/26 08:32:39;;;;;;;3.53;2.83;;;11.20;96.50;;;;;;5031310;28;20214;-62
2024/03/26 08:35:08;;;;;;;2.77;2.50;;;11.10;95.30;;;;;;5028968;28;20199;-63
2024/03/26 08:37:35;;;;;;;3.00;2.30;;;11.30;95.70;;;;;;5031043;28;20187;-63
2024/03/26 08:40:01;;;;;;;2.90;2.60;;;11.60;95.10;;;;;;5030719;28;20888;-62
2024/03/26 08:42:27;;;;;;;4.50;2.70;;;11.70;94.40;;;;;;5030880;28;20455;-62
2024/03/26 08:44:52;;;;;;;2.63;2.30;;;11.70;94.60;;;;;;5031219;28;20785;-64
2024/03/26 08:47:18;;;;;;;3.00;2.70;;;11.80;93.20;;;;;;5029127;28;20556;-61
2024/03/26 08:49:44;;;;;;;2.77;2.57;;;11.60;91.80;;;;;;5030666;28;20189;-62
2024/03/26 08:52:09;;;;;;;3.70;3.00;;;11.30;92.50;;;;;;5013401;28;20669;-62
2024/03/26 08:54:35;;;;;;;3.10;2.60;;;11.10;92.60;;;;;;5030618;28;20283;-62
2024/03/26 08:57:00;;;;;;;4.73;2.73;;;10.80;92.90;;;;;;5030820;28;20202;-62
2024/03/26 08:59:26;;;;;;;3.60;3.30;;;10.90;93.10;;;;;;5031197;28;20180;-62
2024/03/26 09:01:52;;;;;;;3.10;2.80;;;11.10;93.20;;;;;;5031053;28;20175;-62
2024/03/26 09:04:17;;;;;;;3.33;2.90;;;11.30;92.60;;;;;;5029074;28;20248;-63
2024/03/26 09:06:43;;;;;;;4.03;2.80;;;11.40;92.60;;;;;;5030966;28;20255;-64
2024/03/26 09:09:08;;;;;;;5.17;3.17;;;11.80;91.70;;;;;;5018769;28;20623;-63
2024/03/26 09:11:34;;;;;;;3.90;2.87;;;12.30;90.70;;;;;;5017123;28;20288;-63
2024/03/26 09:13:59;;;;;;;3.63;2.50;;;12.10;88.40;;;;;;5030617;28;20177;-62
2024/03/26 09:16:25;;;;;;;6.37;3.47;;;11.90;89.30;;;;;;5030937;28;20186;-63
2024/03/26 09:18:51;;;;;;;3.53;3.03;;;11.80;89.40;;;;;;5031228;28;20259;-66
2024/03/26 09:21:16;;;;;;;4.00;2.83;;;11.80;89.50;;;;;;5029523;28;20191;-63
2024/03/26 09:23:42;;;;;;;3.80;3.00;;;12.10;89.30;;;;;;5030347;28;20212;-62
2024/03/26 09:26:08;;;;;;;3.20;2.90;;;11.90;86.60;;;;;;5029495;28;20200;-63
2024/03/26 09:28:34;;;;;;;3.43;2.60;;;11.50;85.20;;;;;;5030551;28;20193;-63
2024/03/26 09:31:00;;;;;;;4.00;2.73;;;11.40;84.10;;;;;;5030528;28;20414;-63
2024/03/26 09:33:25;;;;;;;2.60;2.40;;;11.30;84.40;;;;;;5030296;28;20528;-62
2024/03/26 09:35:52;;;;;;;2.63;2.13;;;11.50;85.10;;;;;;5029868;28;20568;-63
2024/03/26 09:38:17;;;;;;;2.30;2.10;;;11.70;82.60;;;;;;5029707;28;20870;-63
2024/03/26 09:40:47;;;;;;;2.40;2.20;;;11.70;80.30;;;;;;5029501;28;20427;-63
2024/03/26 09:43:13;;;;;;;2.50;2.03;;;12.10;79.50;;;;;;5028966;28;20203;-64
2024/03/26 09:45:39;;;;;;;1.47;1.30;;;12.70;79.60;;;;;;5029969;28;20494;-63
2024/03/26 09:48:08;;;;;;;1.87;1.57;;;12.60;74.20;;;;;;5028378;28;20435;-65
2024/03/26 09:50:35;;;;;;;1.80;1.70;;;12.60;73.10;;;;;;5030019;28;20242;-64
2024/03/26 09:53:03;;;;;;;2.33;2.13;;;12.50;72.40;;;;;;5030018;28;20969;-64
2024/03/26 09:55:29;;;;;;;2.70;1.97;;;12.60;75.30;;;;;;5029689;28;20653;-63
2024/03/26 09:57:54;;;;;;;2.53;2.10;;;12.40;75.20;;;;;;5030399;28;20824;-63
2024/03/26 10:00:20;;;;;;;2.77;2.57;;;12.50;73.70;;;;;;5029582;28;20277;-63
2024/03/26 10:02:47;;;;;;;4.27;2.23;;;12.30;72.20;;;;;;5029964;28;20497;-66
2024/03/26 10:05:16;;;;;;;2.53;2.20;;;12.00;74.70;;;;;;5009929;28;20463;-63
2024/03/26 10:07:46;;;;;;;3.80;2.17;;;12.00;74.30;;;;;;5029880;28;20496;-63
2024/03/26 10:10:12;;;;;;;2.43;2.20;;;11.90;75.50;;;;;;5029962;28;20415;-63
2024/03/26 10:12:38;;;;;;;2.67;2.20;;;11.90;75.90;;;;;;5031651;28;20513;-63
2024/03/26 10:15:05;;;;;;;1.83;1.73;;;11.90;75.20;;;;;;5029489;28;20449;-63
2024/03/26 10:17:31;;;;;;;2.83;2.23;;;11.90;75.90;;;;;;5028990;28;20422;-64
2024/03/26 10:19:56;;;;;;;3.43;2.10;;;12.10;75.70;;;;;;5029747;28;20500;-63
2024/03/26 10:22:22;;;;;;;3.03;2.27;;;12.10;76.50;;;;;;5027627;28;20213;-63
2024/03/26 10:24:48;;;;;;;2.13;1.80;;;11.80;74.90;;;;;;5028209;28;20207;-63
2024/03/26 10:27:14;;;;;;;3.03;2.23;;;11.60;74.20;;;;;;5009367;28;20233;-63
2024/03/26 10:29:39;;;;;;;3.43;2.03;;;11.70;74.30;;;;;;5029340;28;20415;-63
2024/03/26 10:32:05;;;;;;;2.33;1.87;;;11.70;74.20;;;;;;5029750;28;20249;-64
2024/03/26 10:34:34;;;;;;;2.17;2.03;;;11.70;74.80;;;;;;5029766;28;20282;-63
2024/03/26 10:37:01;;;;;;;2.00;1.73;;;11.70;71.50;;;;;;5028700;28;20596;-64
2024/03/26 10:39:32;;;;;;;2.33;1.97;;;11.60;72.20;;;;;;5029239;28;20576;-63
2024/03/26 10:41:58;;;;;;;2.20;2.00;;;11.60;74.00;;;;;;5028142;28;20780;-64
2024/03/26 10:44:25;;;;;;;2.27;2.07;;;11.80;74.00;;;;;;5027908;28;20521;-62
2024/03/26 10:46:51;;;;;;;1.87;1.77;;;11.80;74.40;;;;;;5029143;28;20579;-63
2024/03/26 10:49:20;;;;;;;2.20;1.80;;;11.80;73.70;;;;;;5028015;28;20466;-62
2024/03/26 10:51:47;;;;;;;1.93;1.83;;;11.70;73.20;;;;;;5029238;28;20916;-62
2024/03/26 10:54:15;;;;;;;2.60;2.40;;;11.90;72.50;;;;;;5029116;28;20470;-62
2024/03/26 10:56:42;;;;;;;2.10;1.90;;;11.90;71.80;;;;;;5029465;28;20453;-63
2024/03/26 10:59:08;;;;;;;3.53;2.10;;;11.90;72.20;;;;;;5029195;28;20907;-62
2024/03/26 11:01:34;;;;;;;2.33;1.83;;;11.90;72.10;;;;;;5029388;28;20509;-60
2024/03/26 11:04:01;;;;;;;4.00;2.00;;;12.00;73.30;;;;;;5029276;28;20290;-62
2024/03/26 11:06:28;;;;;;;2.63;2.30;;;12.20;73.20;;;;;;5026934;28;20802;-62
2024/03/26 11:09:05;;;;;;;2.60;2.10;;;12.20;72.70;;;;;;5029203;28;20432;-62
2024/03/26 11:11:34;;;;;;;1.97;1.77;;;12.40;71.90;;;;;;5029096;28;20468;-61
2024/03/26 11:14:03;;;;;;;2.60;2.07;;;12.30;71.60;;;;;;5028757;28;20454;-63
2024/03/26 11:16:50;;;;;;;2.40;1.87;;;12.50;72.20;;;;;;5028917;28;20843;-63
2024/03/26 11:19:21;;;;;;;3.63;2.20;;;12.30;71.60;;;;;;5028956;28;20429;-61
2024/03/26 11:21:53;;;;;;;2.80;2.03;;;12.50;71.90;;;;;;5028594;28;20839;-63
2024/03/26 11:24:29;;;;;;;2.00;1.80;;;12.50;72.00;;;;;;5014775;28;20458;-63
2024/03/26 11:26:58;;;;;;;2.63;1.90;;;12.60;71.30;;;;;;5026377;28;20427;-63
2024/03/26 11:29:24;;;;;;;2.43;1.60;;;12.50;72.10;;;;;;5026772;28;20921;-64
2024/03/26 11:31:51;;;;;;;3.70;2.60;;;12.60;70.70;;;;;;5004952;28;20446;-64
2024/03/26 11:34:20;;;;;;;2.50;2.30;;;12.70;70.50;;;;;;5027684;28;20979;-63
2024/03/26 11:36:46;;;;;;;1.93;1.80;;;12.80;70.20;;;;;;5032469;28;20422;-63
2024/03/26 11:39:15;;;;;;;2.17;1.97;;;13.00;71.40;;;;;;5014943;28;20430;-63
2024/03/26 11:41:41;;;;;;;3.23;2.30;;;13.20;69.40;;;;;;5028442;28;20594;-63
2024/03/26 11:44:07;;;;;;;2.13;1.90;;;13.10;68.60;;;;;;5025372;28;20470;-63
2024/03/26 11:46:33;;;;;;;8.27;6.60;;;13.20;69.50;;;;;;5031470;28;20428;-64
2024/03/26 11:49:00;;;;;;;5.93;3.93;;;13.90;85.70;;;;;;5032394;28;20901;-62
2024/03/26 11:51:30;;;;;;;5.50;3.10;;;14.10;72.60;;;;;;5032049;28;20200;-63
2024/03/26 11:53:56;;;;;;;5.00;2.17;;;14.20;73.90;;;;;;5031980;28;20862;-65
2024/03/26 11:56:22;;;;;;;3.23;1.93;;;14.20;68.10;;;;;;5031554;28;20490;-63
2024/03/26 11:58:50;;;;;;;3.67;2.13;;;14.60;67.30;;;;;;5032577;28;20514;-64
2024/03/26 12:01:20;;;;;;;1.70;1.60;;;14.10;63.70;;;;;;5029939;28;20431;-63
2024/03/26 12:03:56;;;;;;;2.23;1.93;;;13.90;65.00;;;;;;5032079;28;20471;-63
2024/03/26 12:06:24;;;;;;;1.70;1.60;;;13.70;65.50;;;;;;5031930;28;20432;-62
2024/03/26 12:08:59;;;;;;;1.93;1.83;;;13.50;63.60;;;;;;5031926;28;20445;-62
2024/03/26 12:11:25;;;;;;;3.27;2.10;;;13.40;64.80;;;;;;5032288;28;20426;-63
2024/03/26 12:13:52;;;;;;;5.53;2.33;;;13.20;65.60;;;;;;5031822;28;20548;-64
2024/03/26 12:16:24;;;;;;;2.50;2.27;;;13.30;67.10;;;;;;5031759;28;20415;-63
2024/03/26 12:18:54;;;;;;;2.70;2.37;;;13.50;65.70;;;;;;5013188;28;20412;-63
2024/03/26 12:21:24;;;;;;;2.50;2.30;;;13.50;64.90;;;;;;5032090;28;20426;-63
2024/03/26 12:23:51;;;;;;;7.63;1.93;;;13.30;65.60;;;;;;5031345;28;20488;-63
2024/03/26 12:26:17;;;;;;;2.70;2.43;;;13.50;65.30;;;;;;5031115;28;20425;-64
2024/03/26 12:28:42;;;;;;;2.60;2.20;;;13.50;65.60;;;;;;5031443;28;20441;-64
2024/03/26 12:31:09;;;;;;;2.43;2.23;;;13.50;65.80;;;;;;5031605;28;20411;-63
2024/03/26 12:33:35;;;;;;;2.13;1.93;;;13.60;65.80;;;;;;5031450;28;20327;-64
2024/03/26 12:36:04;;;;;;;2.13;1.67;;;13.70;65.10;;;;;;5031298;28;20621;-64
2024/03/26 12:38:33;;;;;;;2.90;1.77;;;13.50;64.50;;;;;;5031487;28;20271;-62
2024/03/26 12:40:59;;;;;;;3.03;2.20;;;13.40;64.00;;;;;;5031701;28;20437;-63
2024/03/26 12:43:24;;;;;;;2.73;2.53;;;13.50;65.00;;;;;;5031486;28;20490;-64
2024/03/26 12:45:50;;;;;;;2.93;2.63;;;13.60;63.70;;;;;;5031626;28;20864;-64
2024/03/26 12:48:16;;;;;;;3.70;2.07;;;13.50;64.60;;;;;;5031700;28;20200;-62